Time;durP1;ratioP1;P1;durP2;ratioP2;P2;SDS_P1;SDS_P2;PMS_P1;PMS_P2;Temp;Humidity;BMP_temperature;BMP_pressure;BME280_temperature;BME280_humidity;BME280_pressure;Samples;Min_cycle;Max_cycle;Signal;HPM_P1;HPM_P2
2022/12/08 00:02:16;;;;;;;4.50;2.85;;;;;;;0.16;100.00;99861.22;6128187;23;20009;-86
2022/12/08 00:10:10;;;;;;;;;;;;;;;0.26;100.00;99861.34;6153362;23;20340;-86
2022/12/08 00:12:35;;;;;;;2.10;1.33;;;;;;;0.16;100.00;99844.84;6151247;23;19983;-87
2022/12/08 00:15:01;;;;;;;0.45;0.45;;;;;;;0.13;100.00;99857.28;6152515;23;20006;-87
2022/12/08 00:17:26;;;;;;;0.30;0.30;;;;;;;0.15;100.00;99859.63;6154064;23;20482;-87
2022/12/08 00:19:52;;;;;;;1.95;1.45;;;;;;;0.17;100.00;99851.84;6152205;23;20032;-87
2022/12/08 00:22:17;;;;;;;1.58;1.48;;;;;;;0.16;100.00;99853.03;6152313;23;20056;-86
2022/12/08 00:24:44;;;;;;;0.28;0.28;;;;;;;0.06;100.00;99845.50;6153631;23;20025;-80
2022/12/08 00:27:11;;;;;;;1.75;1.63;;;;;;;0.13;100.00;99854.53;6152234;23;20010;-80
2022/12/08 00:29:37;;;;;;;0.63;0.63;;;;;;;0.15;100.00;99854.19;6127166;23;20356;-80
2022/12/08 00:32:03;;;;;;;0.68;0.68;;;;;;;0.20;100.00;99856.59;6151783;23;20009;-79
2022/12/08 00:34:32;;;;;;;2.72;1.55;;;;;;;0.13;100.00;99856.47;6127802;23;20005;-80
2022/12/08 00:36:57;;;;;;;0.95;0.95;;;;;;;0.05;100.00;99860.28;6127620;23;20017;-80
2022/12/08 00:39:23;;;;;;;0.30;0.30;;;;;;;-0.01;100.00;99848.94;6153995;23;20017;-79
2022/12/08 00:44:32;;;;;;;2.40;2.20;;;;;;;-0.06;100.00;99858.22;6153825;23;20013;-80
2022/12/08 00:46:58;;;;;;;0.30;0.30;;;;;;;-0.06;100.00;99860.16;6153316;23;20014;-79
2022/12/08 00:49:24;;;;;;;0.68;0.68;;;;;;;0.00;100.00;99859.44;6152044;23;20325;-80
2022/12/08 00:51:49;;;;;;;2.95;1.60;;;;;;;0.05;100.00;99846.66;6151515;23;20507;-80
2022/12/08 00:54:15;;;;;;;1.85;1.75;;;;;;;0.13;100.00;99853.75;6153467;23;20383;-79
2022/12/08 00:56:41;;;;;;;1.70;1.33;;;;;;;0.18;100.00;99847.97;6153514;23;20013;-80
2022/12/08 00:59:07;;;;;;;1.17;1.05;;;;;;;0.22;100.00;99859.72;6127585;23;20013;-80
2022/12/08 01:01:34;;;;;;;2.10;1.58;;;;;;;0.21;100.00;99858.13;6127229;23;20002;-79
2022/12/08 01:04:08;;;;;;;0.50;0.50;;;;;;;0.21;100.00;99847.22;6151349;23;20021;-87
2022/12/08 01:06:34;;;;;;;2.47;2.30;;;;;;;0.28;100.00;99852.78;6126185;23;20072;-80
2022/12/08 01:09:01;;;;;;;0.85;0.85;;;;;;;0.29;100.00;99851.59;6151713;23;20001;-79
2022/12/08 01:11:26;;;;;;;5.03;2.85;;;;;;;0.31;100.00;99844.66;6126591;23;20392;-80
2022/12/08 01:13:52;;;;;;;1.88;1.70;;;;;;;0.33;100.00;99853.22;6149947;23;20037;-79
2022/12/08 01:16:26;;;;;;;0.40;0.40;;;;;;;0.33;100.00;99845.03;6101415;23;20021;-80
2022/12/08 01:18:52;;;;;;;1.98;1.88;;;;;;;0.32;100.00;99838.03;6151090;23;20024;-79
2022/12/08 01:21:18;;;;;;;0.73;0.73;;;;;;;0.35;100.00;99839.22;6153145;23;20009;-80
2022/12/08 01:23:44;;;;;;;2.70;2.50;;;;;;;0.36;100.00;99838.88;6125754;23;20017;-86
2022/12/08 01:26:11;;;;;;;0.30;0.30;;;;;;;0.36;100.00;99832.63;6152411;23;20033;-87
2022/12/08 01:28:37;;;;;;;6.03;2.72;;;;;;;0.39;100.00;99834.59;6149420;23;20020;-87
2022/12/08 01:31:03;;;;;;;0.93;0.93;;;;;;;0.41;100.00;99832.25;6151700;23;20012;-87
2022/12/08 01:33:28;;;;;;;0.52;0.52;;;;;;;0.43;100.00;99833.47;6151518;23;20340;-86
2022/12/08 01:35:56;;;;;;;1.83;1.65;;;;;;;0.45;100.00;99830.34;6151665;23;20009;-86
2022/12/08 01:38:22;;;;;;;0.75;0.75;;;;;;;0.41;100.00;99830.31;6152875;23;20013;-87
2022/12/08 01:40:48;;;;;;;1.17;1.08;;;;;;;0.47;100.00;99833.50;6152716;23;20001;-86
2022/12/08 01:43:18;;;;;;;0.63;0.63;;;;;;;0.56;100.00;99825.81;6153143;23;20602;-80
2022/12/08 01:45:45;;;;;;;2.30;1.70;;;;;;;0.57;100.00;99819.16;6153204;23;20456;-80
2022/12/08 01:48:16;;;;;;;1.40;1.30;;;;;;;0.57;100.00;99818.41;6151595;23;20009;-80
2022/12/08 01:50:42;;;;;;;0.65;0.65;;;;;;;0.58;100.00;99809.81;6153008;23;20014;-79
2022/12/08 01:53:23;;;;;;;2.38;1.58;;;;;;;0.59;100.00;99805.94;6150957;23;20002;-79
2022/12/08 01:55:57;;;;;;;1.00;1.00;;;;;;;0.55;100.00;99812.53;6151367;23;20467;-80
2022/12/08 01:58:31;;;;;;;1.92;1.83;;;;;;;0.55;100.00;99809.78;6126833;23;20024;-80
2022/12/08 02:04:00;;;;;;;0.10;0.10;;;;;;;0.63;100.00;99795.06;6134506;23;20022;-80
2022/12/08 02:06:29;;;;;;;1.45;1.35;;;;;;;0.62;100.00;99788.81;6127192;23;20009;-80
2022/12/08 02:08:55;;;;;;;3.45;1.98;;;;;;;0.67;100.00;99793.94;6126355;23;20109;-80
2022/12/08 02:11:21;;;;;;;1.25;1.15;;;;;;;0.70;100.00;99781.47;6102149;23;20434;-80
2022/12/08 02:13:48;;;;;;;0.15;0.15;;;;;;;0.56;100.00;99797.72;6102061;23;20049;-80
2022/12/08 02:16:42;;;;;;;2.47;1.92;;;;;;;0.54;100.00;99789.91;6102342;23;20024;-80
2022/12/08 02:19:39;;;;;;;2.88;2.30;;;;;;;0.46;100.00;99782.81;6126472;23;20361;-80
2022/12/08 02:22:24;;;;;;;0.70;0.70;;;;;;;0.44;100.00;99779.69;6126503;23;20021;-80
2022/12/08 02:24:56;;;;;;;0.65;0.60;;;;;;;0.54;100.00;99781.72;6126683;23;20013;-80
2022/12/08 02:27:52;;;;;;;3.08;1.73;;;;;;;0.60;100.00;99773.97;6152140;23;20088;-80
2022/12/08 02:30:24;;;;;;;11.57;2.50;;;;;;;0.56;100.00;99776.69;6126432;23;20021;-80
2022/12/08 02:33:14;;;;;;;1.25;1.10;;;;;;;0.60;100.00;99772.03;6126177;23;20472;-79
2022/12/08 02:35:48;;;;;;;2.08;1.98;;;;;;;0.66;100.00;99767.78;6125314;23;20458;-80
2022/12/08 02:38:26;;;;;;;0.77;0.50;;;;;;;0.68;100.00;99773.66;6126419;23;20340;-79
2022/12/08 02:41:02;;;;;;;2.60;2.40;;;;;;;0.67;100.00;99769.38;6102315;23;20025;-80
2022/12/08 02:43:33;;;;;;;0.63;0.52;;;;;;;0.65;100.00;99766.22;6078057;23;20342;-80
2022/12/08 02:46:02;;;;;;;0.80;0.80;;;;;;;0.63;100.00;99759.56;6152393;23;20017;-80
2022/12/08 02:48:28;;;;;;;2.92;2.00;;;;;;;0.61;100.00;99751.75;6101986;23;20010;-81
2022/12/08 02:50:55;;;;;;;0.35;0.35;;;;;;;0.60;100.00;99744.75;6101994;23;20012;-80
2022/12/08 02:53:20;;;;;;;2.00;1.60;;;;;;;0.59;100.00;99743.16;6102116;23;20025;-80
2022/12/08 02:56:10;;;;;;;1.48;1.38;;;;;;;0.57;100.00;99750.94;6102213;23;20057;-80
2022/12/08 02:59:13;;;;;;;2.90;2.17;;;;;;;0.42;100.00;99754.69;6101523;23;20057;-80
2022/12/08 03:01:48;;;;;;;0.65;0.65;;;;;;;0.41;100.00;99742.22;6152113;23;20020;-80
2022/12/08 03:04:30;;;;;;;0.70;0.70;;;;;;;0.42;100.00;99747.31;6101706;23;20091;-80
2022/12/08 03:07:10;;;;;;;1.27;1.17;;;;;;;0.48;100.00;99745.03;6125304;23;20083;-80
2022/12/08 03:09:41;;;;;;;1.80;1.70;;;;;;;0.49;100.00;99735.66;6077898;23;20397;-80
2022/12/08 03:12:19;;;;;;;0.47;0.47;;;;;;;0.56;100.00;99727.56;6153971;23;20045;-80
2022/12/08 03:14:54;;;;;;;1.63;0.88;;;;;;;0.59;100.00;99729.53;6104015;23;20013;-80
2022/12/08 03:17:23;;;;;;;0.88;0.88;;;;;;;0.59;100.00;99726.00;6080427;23;20096;-79
2022/12/08 03:19:48;;;;;;;0.80;0.70;;;;;;;0.58;100.00;99735.34;6103288;23;20049;-80
2022/12/08 03:22:16;;;;;;;0.40;0.40;;;;;;;0.58;100.00;99730.69;6128096;23;20020;-80
2022/12/08 03:24:43;;;;;;;1.25;1.17;;;;;;;0.55;100.00;99730.66;6103655;23;20005;-80
2022/12/08 03:27:19;;;;;;;3.38;2.28;;;;;;;0.49;100.00;99727.47;6128233;23;20594;-80
2022/12/08 03:29:46;;;;;;;2.17;1.98;;;;;;;0.55;100.00;99725.97;6103327;23;20013;-80
2022/12/08 03:32:21;;;;;;;0.70;0.70;;;;;;;0.51;100.00;99718.91;6079203;23;20018;-80
2022/12/08 03:34:47;;;;;;;1.77;0.98;;;;;;;0.48;100.00;99720.47;6152060;23;20037;-80
2022/12/08 03:37:13;;;;;;;0.20;0.20;;;;;;;0.47;100.00;99724.34;6126785;23;20024;-80
2022/12/08 03:39:39;;;;;;;1.75;1.58;;;;;;;0.52;100.00;99718.56;6128015;23;20461;-79
2022/12/08 03:42:04;;;;;;;0.98;0.98;;;;;;;0.56;100.00;99733.00;6128149;23;20422;-79
2022/12/08 03:44:30;;;;;;;1.00;1.00;;;;;;;0.62;100.00;99720.56;6103475;23;20045;-79
2022/12/08 03:46:56;;;;;;;0.50;0.50;;;;;;;0.60;100.00;99722.91;6127753;23;20055;-79
2022/12/08 03:49:21;;;;;;;1.88;1.77;;;;;;;0.56;100.00;99722.09;6126985;23;20087;-80
2022/12/08 03:51:47;;;;;;;0.57;0.57;;;;;;;0.56;100.00;99713.13;6127789;23;20458;-80
2022/12/08 03:54:12;;;;;;;1.23;1.23;;;;;;;0.55;100.00;99709.59;6153924;23;20453;-79
2022/12/08 03:56:38;;;;;;;1.23;1.20;;;;;;;0.61;100.00;99708.06;6102976;23;20037;-80
2022/12/08 03:59:06;;;;;;;2.47;2.28;;;;;;;0.65;100.00;99697.22;6127112;23;20016;-79
2022/12/08 04:01:31;;;;;;;0.70;0.70;;;;;;;0.63;100.00;99703.03;6078877;23;20093;-79
2022/12/08 04:03:57;;;;;;;0.30;0.30;;;;;;;0.63;100.00;99705.78;6125695;23;20067;-80
2022/12/08 04:06:23;;;;;;;1.08;0.88;;;;;;;0.68;100.00;99704.63;6102328;23;20375;-80
2022/12/08 04:08:49;;;;;;;0.98;0.98;;;;;;;0.66;100.00;99710.47;6126087;23;20009;-79
2022/12/08 04:11:15;;;;;;;0.85;0.85;;;;;;;0.60;100.00;99712.00;6077574;23;20009;-79
2022/12/08 04:13:41;;;;;;;1.98;1.23;;;;;;;0.58;100.00;99714.31;6151220;23;20457;-79
2022/12/08 04:16:07;;;;;;;0.80;0.80;;;;;;;0.60;100.00;99706.53;6125954;23;20005;-80
2022/12/08 04:18:34;;;;;;;0.50;0.50;;;;;;;0.60;100.00;99717.44;6101597;23;20442;-81
2022/12/08 04:21:00;;;;;;;0.88;0.52;;;;;;;0.66;100.00;99709.69;6100976;23;20017;-81
2022/12/08 04:23:25;;;;;;;0.85;0.85;;;;;;;0.59;100.00;99710.41;6125588;23;20364;-80
2022/12/08 04:25:52;;;;;;;6.72;2.13;;;;;;;0.67;100.00;99717.50;6101424;23;20288;-80
2022/12/08 04:28:17;;;;;;;2.90;1.60;;;;;;;0.70;100.00;99716.75;6101797;23;20457;-80
2022/12/08 04:30:43;;;;;;;1.55;1.45;;;;;;;0.69;100.00;99706.97;6077066;23;20018;-81
2022/12/08 04:33:09;;;;;;;0.63;0.63;;;;;;;0.65;100.00;99702.69;6101491;23;20006;-80
2022/12/08 04:35:35;;;;;;;5.60;1.65;;;;;;;0.73;100.00;99702.31;6101864;23;20037;-80
2022/12/08 04:38:00;;;;;;;2.35;1.63;;;;;;;0.69;100.00;99715.16;6151862;23;20081;-81
2022/12/08 04:40:26;;;;;;;1.08;1.02;;;;;;;0.72;100.00;99719.88;6101878;23;20017;-80
2022/12/08 04:42:51;;;;;;;2.05;1.77;;;;;;;0.75;100.00;99708.19;6101335;23;20104;-80
2022/12/08 04:45:17;;;;;;;1.00;1.00;;;;;;;0.72;100.00;99711.69;6126194;23;20010;-80
2022/12/08 04:47:42;;;;;;;1.25;0.68;;;;;;;0.74;100.00;99708.56;6100559;23;20445;-81
2022/12/08 04:50:08;;;;;;;3.95;1.95;;;;;;;0.78;100.00;99699.25;6101623;23;20381;-80
2022/12/08 04:52:34;;;;;;;0.50;0.50;;;;;;;0.82;100.00;99702.78;6101716;23;20363;-80
2022/12/08 04:54:59;;;;;;;1.98;1.88;;;;;;;0.82;100.00;99702.00;6126062;23;20005;-80
2022/12/08 04:57:25;;;;;;;0.10;0.10;;;;;;;0.72;100.00;99698.03;6101463;23;20048;-80
2022/12/08 04:59:51;;;;;;;0.50;0.50;;;;;;;0.74;100.00;99690.25;6077113;23;20093;-81
2022/12/08 05:02:16;;;;;;;1.38;1.33;;;;;;;0.77;100.00;99688.72;6124726;23;20452;-81
2022/12/08 05:04:42;;;;;;;0.45;0.45;;;;;;;0.81;100.00;99684.81;6041005;23;1433066;-81
2022/12/08 05:07:07;;;;;;;1.10;1.10;;;;;;;0.78;100.00;99676.63;6078266;23;20041;-81
2022/12/08 05:09:33;;;;;;;1.25;1.15;;;;;;;0.79;100.00;99684.44;6078489;23;20017;-80
2022/12/08 05:46:50;;;;;;;2.97;2.78;;;;;;;0.88;100.00;99651.34;6182792;23;20039;-86
2022/12/08 05:49:16;;;;;;;1.13;1.13;;;;;;;0.87;100.00;99645.09;6156804;23;20017;-86
2022/12/08 05:51:42;;;;;;;1.80;1.67;;;;;;;0.85;100.00;99641.94;6131622;23;20008;-87
2022/12/08 05:54:07;;;;;;;1.63;1.52;;;;;;;0.83;100.00;99630.63;6182627;23;20483;-88
2022/12/08 05:56:33;;;;;;;1.95;1.85;;;;;;;0.94;100.00;99649.81;6183269;23;20059;-86
2022/12/08 05:58:58;;;;;;;1.73;1.55;;;;;;;0.98;100.00;99655.28;6156922;23;20193;-87
2022/12/08 06:01:26;;;;;;;3.50;1.80;;;;;;;1.00;100.00;99650.22;6156157;23;20013;-87
2022/12/08 06:03:52;;;;;;;2.20;2.00;;;;;;;1.03;100.00;99641.28;6156309;23;20543;-87
2022/12/08 06:06:18;;;;;;;0.80;0.80;;;;;;;1.12;100.00;99652.63;6157492;23;20460;-86
2022/12/08 06:08:44;;;;;;;8.23;3.90;;;;;;;1.03;100.00;99644.00;6131632;23;20001;-86
2022/12/08 06:11:09;;;;;;;1.10;1.00;;;;;;;1.12;100.00;99655.38;6107362;23;20079;-87
2022/12/08 06:13:35;;;;;;;1.42;1.33;;;;;;;1.02;100.00;99643.22;6155952;23;20420;-87
2022/12/08 06:16:05;;;;;;;2.17;2.08;;;;;;;1.02;100.00;99653.34;6132263;23;20433;-88
2022/12/08 06:18:30;;;;;;;2.22;2.08;;;;;;;0.96;100.00;99638.50;6182161;23;20139;-87
2022/12/08 06:21:07;;;;;;;2.70;2.50;;;;;;;1.05;100.00;99645.19;6156012;23;20414;-87
2022/12/08 06:23:33;;;;;;;0.77;0.75;;;;;;;1.15;100.00;99649.13;6130557;23;20013;-88
2022/12/08 06:26:17;;;;;;;1.00;1.00;;;;;;;1.04;100.00;99642.84;6181460;23;20059;-87
2022/12/08 06:28:43;;;;;;;1.02;0.93;;;;;;;1.05;100.00;99650.66;6155203;23;20005;-87
2022/12/08 06:31:12;;;;;;;1.40;1.33;;;;;;;1.11;100.00;99659.25;6155477;23;20020;-86
2022/12/08 06:33:38;;;;;;;1.50;1.40;;;;;;;1.12;100.00;99655.38;6154531;23;20025;-86
2022/12/08 06:36:04;;;;;;;2.75;2.55;;;;;;;1.08;100.00;99655.34;6154513;23;20017;-87
2022/12/08 06:38:30;;;;;;;3.08;2.45;;;;;;;1.10;100.00;99655.75;6155369;23;20063;-86
2022/12/08 06:40:57;;;;;;;0.98;0.88;;;;;;;1.16;100.00;99653.44;6130029;23;20005;-80
2022/12/08 06:43:22;;;;;;;0.60;0.60;;;;;;;1.19;100.00;99655.41;6182213;23;20013;-82
2022/12/08 06:45:48;;;;;;;2.45;1.25;;;;;;;1.23;100.00;99653.47;6181593;23;20117;-82
2022/12/08 06:48:13;;;;;;;1.80;1.70;;;;;;;1.27;100.00;99646.84;6183270;23;20071;-82
2022/12/08 06:50:39;;;;;;;2.35;2.15;;;;;;;1.34;100.00;99657.03;6132406;23;20017;-82
2022/12/08 06:53:04;;;;;;;0.68;0.68;;;;;;;1.34;100.00;99651.56;6182805;23;20465;-82
2022/12/08 06:55:30;;;;;;;1.58;1.08;;;;;;;1.38;100.00;99663.28;6157614;23;20013;-82
2022/12/08 06:57:56;;;;;;;2.70;2.25;;;;;;;1.43;100.00;99662.91;6157237;23;20354;-82
2022/12/08 07:00:21;;;;;;;0.25;0.25;;;;;;;1.43;100.00;99660.19;6158235;23;20016;-82
2022/12/08 07:02:47;;;;;;;3.50;2.42;;;;;;;1.45;100.00;99663.34;6158226;23;20013;-82
2022/12/08 07:05:13;;;;;;;1.58;1.48;;;;;;;1.53;100.00;99673.13;6182033;23;20386;-82
2022/12/08 07:07:38;;;;;;;5.43;2.92;;;;;;;1.45;100.00;99677.00;6183314;23;20020;-82
2022/12/08 07:10:04;;;;;;;5.22;2.22;;;;;;;1.55;100.00;99678.97;6157228;23;20005;-82
2022/12/08 07:12:30;;;;;;;9.60;2.78;;;;;;;1.48;100.00;99657.09;6157716;23;20013;-82
2022/12/08 07:14:56;;;;;;;3.10;2.63;;;;;;;1.56;100.00;99663.34;6132701;23;20020;-82
2022/12/08 07:17:21;;;;;;;1.95;1.77;;;;;;;1.51;100.00;99648.13;6157650;23;20005;-82
2022/12/08 07:19:47;;;;;;;7.20;5.65;;;;;;;1.61;100.00;99663.00;6157094;23;20013;-82
2022/12/08 07:22:12;;;;;;;7.50;5.60;;;;;;;1.58;100.00;99650.88;6132809;23;20048;-82
2022/12/08 07:24:38;;;;;;;8.88;5.15;;;;;;;1.66;100.00;99646.97;6156951;23;20035;-83
2022/12/08 07:27:03;;;;;;;8.43;4.97;;;;;;;1.77;100.00;99652.50;6156303;23;20013;-82
2022/12/08 07:29:29;;;;;;;2.58;2.38;;;;;;;1.83;100.00;99640.78;6157565;23;20052;-82
2022/12/08 07:31:54;;;;;;;3.35;2.78;;;;;;;1.80;100.00;99635.31;6156694;23;20016;-82
2022/12/08 07:34:20;;;;;;;1.70;1.58;;;;;;;1.81;100.00;99637.66;6181834;23;20088;-82
2022/12/08 07:36:45;;;;;;;3.15;1.98;;;;;;;1.85;100.00;99637.66;6132096;23;20338;-82
2022/12/08 07:39:11;;;;;;;2.05;1.40;;;;;;;1.90;100.00;99628.31;6183237;23;20037;-82
2022/12/08 07:41:36;;;;;;;1.27;1.17;;;;;;;1.96;100.00;99640.41;6157075;23;20023;-82
2022/12/08 07:44:03;;;;;;;2.72;1.58;;;;;;;1.96;100.00;99637.69;6156969;23;20024;-82
2022/12/08 07:46:28;;;;;;;2.78;2.55;;;;;;;1.97;100.00;99637.28;6157221;23;20044;-82
2022/12/08 07:48:55;;;;;;;1.48;1.38;;;;;;;2.07;100.00;99646.66;6157036;23;20009;-81
2022/12/08 07:51:21;;;;;;;3.47;2.28;;;;;;;2.08;100.00;99642.78;6131925;23;20464;-81
2022/12/08 07:53:48;;;;;;;1.63;1.05;;;;;;;2.11;100.00;99639.25;6156842;23;20013;-81
2022/12/08 07:56:14;;;;;;;3.97;3.67;;;;;;;2.16;100.00;99619.72;6182997;23;20009;-82
2022/12/08 07:58:40;;;;;;;3.13;2.92;;;;;;;2.19;100.00;99627.13;6182958;23;20013;-82
2022/12/08 08:01:16;;;;;;;1.13;1.13;;;;;;;2.23;100.00;99630.66;6107830;23;20094;-82
2022/12/08 08:03:42;;;;;;;4.47;4.00;;;;;;;2.29;100.00;99629.09;6182327;23;20024;-81
2022/12/08 08:06:07;;;;;;;2.00;1.77;;;;;;;2.21;100.00;99594.72;6180792;23;20001;-82
2022/12/08 08:08:33;;;;;;;4.82;2.90;;;;;;;2.27;100.00;99615.03;6156441;23;20513;-82
2022/12/08 08:10:58;;;;;;;0.77;0.77;;;;;;;2.33;100.00;99618.94;6131587;23;20441;-82
2022/12/08 08:13:24;;;;;;;1.20;1.17;;;;;;;2.35;100.00;99616.56;6182635;23;20115;-81
2022/12/08 08:15:49;;;;;;;0.80;0.80;;;;;;;2.32;100.00;99612.69;6181780;23;20011;-81
2022/12/08 08:18:15;;;;;;;4.28;2.58;;;;;;;2.36;100.00;99590.78;6131315;23;20079;-82
2022/12/08 08:20:40;;;;;;;1.73;0.40;;;;;;;2.43;100.00;99612.66;6182147;23;20113;-81
2022/12/08 08:23:06;;;;;;;2.65;2.45;;;;;;;2.46;100.00;99616.59;6182167;23;20021;-82
2022/12/08 08:25:32;;;;;;;3.92;2.20;;;;;;;2.49;100.00;99619.31;6181108;23;20054;-82
2022/12/08 08:27:57;;;;;;;1.73;1.63;;;;;;;2.57;100.00;99615.41;6155438;23;20020;-81
2022/12/08 08:30:23;;;;;;;2.58;2.38;;;;;;;2.57;100.00;99615.41;6155832;23;20020;-81
2022/12/08 08:32:49;;;;;;;0.70;0.70;;;;;;;2.63;100.00;99615.78;6155676;23;20341;-81
2022/12/08 08:35:15;;;;;;;0.63;0.63;;;;;;;2.65;100.00;99605.22;6155033;23;20357;-81
2022/12/08 08:37:41;;;;;;;3.72;3.42;;;;;;;2.67;100.00;99606.38;6155580;23;20430;-81
2022/12/08 08:40:07;;;;;;;1.13;1.13;;;;;;;2.68;100.00;99590.72;6182276;23;19997;-81
2022/12/08 08:42:33;;;;;;;2.42;2.22;;;;;;;2.67;100.00;99606.38;6156864;23;20472;-81
2022/12/08 08:44:58;;;;;;;5.82;3.05;;;;;;;2.76;100.00;99609.50;6182310;23;20017;-81
2022/12/08 08:47:24;;;;;;;1.92;1.83;;;;;;;2.74;100.00;99611.84;6182970;23;20009;-81
2022/12/08 08:49:50;;;;;;;4.85;3.15;;;;;;;2.86;100.00;99620.81;6155518;23;20331;-82
2022/12/08 08:52:15;;;;;;;8.65;3.40;;;;;;;2.91;100.00;99614.94;6155818;23;20028;-82
2022/12/08 08:54:41;;;;;;;3.25;2.95;;;;;;;2.93;100.00;99629.03;6156027;23;20084;-81
2022/12/08 08:57:07;;;;;;;2.17;1.65;;;;;;;2.92;100.00;99621.97;6182081;23;20368;-82
2022/12/08 08:59:33;;;;;;;1.77;1.67;;;;;;;2.91;100.00;99621.22;6156373;23;20390;-82
2022/12/08 09:01:58;;;;;;;2.88;2.38;;;;;;;2.95;100.00;99615.72;6156431;23;20012;-82
2022/12/08 09:04:24;;;;;;;1.30;0.90;;;;;;;2.88;100.00;99602.03;6182155;23;20005;-83
2022/12/08 09:06:50;;;;;;;1.65;1.55;;;;;;;3.00;100.00;99607.06;6157112;23;20084;-82
2022/12/08 09:09:16;;;;;;;3.65;1.55;;;;;;;2.98;100.00;99603.97;6156145;23;20094;-84
2022/12/08 09:11:42;;;;;;;2.72;2.33;;;;;;;3.03;100.00;99609.03;6156254;23;20405;-83
2022/12/08 09:14:10;;;;;;;1.80;0.95;;;;;;;3.00;100.00;99601.59;6181693;23;20137;-84
2022/12/08 09:16:36;;;;;;;2.97;1.65;;;;;;;2.98;100.00;99598.47;6183030;23;20084;-87
2022/12/08 09:19:01;;;;;;;0.60;0.60;;;;;;;2.98;100.00;99598.47;6155225;23;20381;-86
2022/12/08 09:21:27;;;;;;;2.00;1.90;;;;;;;2.95;100.00;99591.84;6131419;23;20055;-86
2022/12/08 09:23:55;;;;;;;0.73;0.73;;;;;;;2.98;100.00;99580.09;6155952;23;20012;-91
2022/12/08 09:26:22;;;;;;;0.57;0.57;;;;;;;3.01;100.00;99586.72;6132975;23;20020;-94
2022/12/08 09:28:48;;;;;;;0.98;0.98;;;;;;;3.05;100.00;99580.06;6108476;23;20024;-91
2022/12/08 09:31:15;;;;;;;1.98;1.88;;;;;;;3.00;100.00;99565.97;6134180;23;20049;-88
2022/12/08 09:33:41;;;;;;;1.73;0.63;;;;;;;3.01;100.00;99560.09;6131831;23;20004;-92
2022/12/08 09:36:08;;;;;;;1.00;1.00;;;;;;;3.05;100.00;99571.06;6131471;23;20020;-89
2022/12/08 09:38:33;;;;;;;1.05;1.00;;;;;;;3.10;100.00;99570.66;6132420;23;20013;-92
2022/12/08 09:41:02;;;;;;;0.60;0.60;;;;;;;3.12;100.00;99565.53;6133141;23;20036;-88
2022/12/08 09:43:46;;;;;;;1.15;0.98;;;;;;;3.16;100.00;99564.34;6182054;23;20008;-90
2022/12/08 09:46:14;;;;;;;1.52;1.42;;;;;;;3.15;100.00;99562.03;6155689;23;20460;-89
2022/12/08 09:48:43;;;;;;;1.27;1.13;;;;;;;3.19;100.00;99565.53;6130931;23;20202;-88
2022/12/08 09:51:10;;;;;;;3.55;1.98;;;;;;;3.21;100.00;99569.41;6131642;23;20009;-87
2022/12/08 09:53:51;;;;;;;1.48;1.40;;;;;;;3.19;100.00;99554.56;6132072;23;20040;-89
2022/12/08 09:56:28;;;;;;;0.57;0.57;;;;;;;3.26;100.00;99562.75;6131210;23;20041;-88
2022/12/08 09:59:18;;;;;;;0.45;0.45;;;;;;;3.29;100.00;99548.22;6183940;23;20021;-89
2022/12/08 10:01:44;;;;;;;1.65;1.45;;;;;;;3.30;100.00;99552.53;6158249;23;20028;-89
2022/12/08 10:04:27;;;;;;;0.30;0.30;;;;;;;3.33;100.00;99549.00;6156341;23;20089;-90
2022/12/08 10:06:56;;;;;;;;;;;;;;;3.41;100.00;99561.47;6132278;23;20350;-88
2022/12/08 10:10:03;;;;;;;1.20;1.10;;;;;;;3.46;100.00;99552.84;6182251;23;19912;-88
2022/12/08 10:13:13;;;;;;;1.17;1.15;;;;;;;3.52;100.00;99550.47;6099052;23;20025;-85
2022/12/08 10:15:58;;;;;;;0.52;0.52;;;;;;;3.56;100.00;99541.00;6108600;23;20024;-86
2022/12/08 10:18:27;;;;;;;1.55;1.45;;;;;;;3.55;100.00;99531.25;6156231;23;20464;-88
2022/12/08 10:20:53;;;;;;;3.15;2.90;;;;;;;3.58;100.00;99544.16;6132934;23;20036;-87
2022/12/08 10:23:32;;;;;;;1.05;1.05;;;;;;;3.61;100.00;99532.38;6158341;23;20511;-86
2022/12/08 10:26:01;;;;;;;2.22;1.90;;;;;;;3.62;100.00;99535.91;6159013;23;20009;-87
2022/12/08 10:28:27;;;;;;;1.08;0.63;;;;;;;3.67;100.00;99530.78;6133910;23;20009;-87
2022/12/08 10:30:52;;;;;;;4.28;1.48;;;;;;;3.61;100.00;99535.13;6158978;23;20009;-86
2022/12/08 10:33:20;;;;;;;1.48;1.38;;;;;;;3.63;100.00;99531.97;6158287;23;20066;-86
2022/12/08 10:35:46;;;;;;;1.17;1.08;;;;;;;3.61;100.00;99526.88;6158785;23;20398;-86
2022/12/08 10:38:26;;;;;;;1.80;1.67;;;;;;;3.58;100.00;99519.47;6133147;23;20063;-86
2022/12/08 10:40:56;;;;;;;3.13;1.95;;;;;;;3.57;100.00;99520.66;6133872;23;20024;-86
2022/12/08 10:43:23;;;;;;;0.90;0.90;;;;;;;3.56;100.00;99507.34;6155373;23;20036;-85
2022/12/08 10:45:49;;;;;;;1.30;1.25;;;;;;;3.65;100.00;99522.16;6157758;23;20017;-85
2022/12/08 10:48:24;;;;;;;2.78;2.63;;;;;;;3.66;100.00;99506.47;6084243;23;20025;-85
2022/12/08 10:50:57;;;;;;;1.00;0.85;;;;;;;3.60;100.00;99497.88;6157696;23;20349;-84
2022/12/08 10:53:24;;;;;;;1.95;1.52;;;;;;;3.69;100.00;99506.44;6157119;23;20084;-83
2022/12/08 10:55:52;;;;;;;4.07;1.10;;;;;;;3.68;100.00;99509.63;6133383;23;20001;-83
2022/12/08 10:58:34;;;;;;;0.63;0.63;;;;;;;3.66;100.00;99512.75;6156772;23;21101;-85
2022/12/08 11:01:03;;;;;;;0.93;0.88;;;;;;;3.66;100.00;99504.53;6182140;23;20274;-83
2022/12/08 11:03:32;;;;;;;1.75;1.65;;;;;;;3.59;100.00;99501.84;6175910;23;20017;-83
2022/12/08 11:05:59;;;;;;;4.03;2.17;;;;;;;3.60;100.00;99495.16;6150950;23;20044;-82
2022/12/08 11:08:26;;;;;;;1.95;1.50;;;;;;;3.62;100.00;99490.06;6181479;23;20013;-84
2022/12/08 11:10:52;;;;;;;1.65;1.55;;;;;;;3.62;100.00;99484.56;6155805;23;20004;-84
2022/12/08 11:13:25;;;;;;;1.95;1.85;;;;;;;3.56;100.00;99477.94;6179204;23;20472;-84
2022/12/08 11:15:52;;;;;;;0.52;0.52;;;;;;;3.55;100.00;99484.63;6181648;23;20017;-87
2022/12/08 11:18:27;;;;;;;0.65;0.65;;;;;;;3.54;100.00;99483.06;6154219;23;20428;-86
2022/12/08 11:20:59;;;;;;;0.80;0.75;;;;;;;3.55;100.00;99475.63;6181544;23;20052;-84
2022/12/08 11:23:27;;;;;;;1.63;1.52;;;;;;;3.56;100.00;99471.69;6179541;23;20024;-85
2022/12/08 11:25:56;;;;;;;0.77;0.52;;;;;;;3.55;100.00;99467.41;6148961;23;20009;-84
2022/12/08 11:28:23;;;;;;;1.27;1.17;;;;;;;3.55;100.00;99459.16;6122322;23;20357;-84
2022/12/08 11:30:53;;;;;;;10.35;2.65;;;;;;;3.50;100.00;99443.91;6149280;23;20330;-82
2022/12/08 11:33:22;;;;;;;13.02;2.63;;;;;;;3.55;100.00;99451.72;6153143;23;20075;-85
2022/12/08 11:35:55;;;;;;;0.75;0.75;;;;;;;3.50;100.00;99441.19;6152962;23;20036;-87
2022/12/08 11:38:23;;;;;;;1.13;0.98;;;;;;;3.56;100.00;99445.03;6127453;23;20097;-87
2022/12/08 11:40:52;;;;;;;1.75;1.23;;;;;;;3.58;100.00;99442.69;6153797;23;20445;-85
2022/12/08 11:43:32;;;;;;;0.80;0.80;;;;;;;3.54;100.00;99439.19;6178860;23;20445;-88
2022/12/08 11:46:00;;;;;;;3.70;1.17;;;;;;;3.60;100.00;99442.28;6178765;23;20091;-87
2022/12/08 11:48:53;;;;;;;1.08;1.08;;;;;;;3.56;100.00;99431.31;6104876;23;20005;-86
2022/12/08 11:51:38;;;;;;;1.45;1.35;;;;;;;3.61;100.00;99439.13;6181530;23;20032;-86
2022/12/08 11:54:29;;;;;;;2.78;2.58;;;;;;;3.61;100.00;99438.34;6181208;23;20349;-86
2022/12/08 11:56:57;;;;;;;1.02;0.95;;;;;;;3.58;100.00;99428.97;6143960;23;20063;-84
2022/12/08 11:59:32;;;;;;;2.78;1.58;;;;;;;3.57;100.00;99430.16;6179745;23;20005;-83
2022/12/08 12:01:59;;;;;;;1.52;1.35;;;;;;;3.57;100.00;99432.09;6155671;23;20378;-83
2022/12/08 12:04:28;;;;;;;1.05;1.05;;;;;;;3.55;100.00;99429.78;6154143;23;20492;-83
2022/12/08 12:07:17;;;;;;;0.52;0.52;;;;;;;3.51;100.00;99420.81;6182453;23;20087;-92
2022/12/08 12:09:52;;;;;;;0.77;0.77;;;;;;;3.56;100.00;99436.06;6182869;23;20060;-90
2022/12/08 12:12:18;;;;;;;0.70;0.70;;;;;;;3.56;100.00;99419.59;6183275;23;20013;-89
2022/12/08 12:15:10;;;;;;;3.95;2.80;;;;;;;3.58;100.00;99423.47;6156375;23;20084;-92
2022/12/08 12:17:49;;;;;;;0.93;0.93;;;;;;;3.59;100.00;99414.09;6157670;23;20017;-94
2022/12/08 12:20:20;;;;;;;2.03;1.85;;;;;;;3.61;100.00;99410.91;6166414;23;20449;-93
2022/12/08 12:22:50;;;;;;;0.35;0.35;;;;;;;3.58;100.00;99401.53;6164584;23;20456;-91
2022/12/08 12:25:22;;;;;;;1.17;0.93;;;;;;;3.60;100.00;99404.66;6132493;23;20017;-90
2022/12/08 12:27:49;;;;;;;3.10;2.20;;;;;;;3.64;100.00;99405.41;6156093;23;20091;-92
2022/12/08 12:30:19;;;;;;;0.55;0.55;;;;;;;3.66;100.00;99408.53;6131700;23;20016;-92